Terminal Aerodrome Forecast
Issued by NWS Charleston, WV

Current Version | Previous Version | Graphics & Text | Print | Product List | Glossary On
Versions: 1 2 3 4 5 6 7 8 9 10 11 12 13 14 15 16 17 18 19 20 21 22 23 24 25 26 27
457
FTUS41 KRLX 161929 AAA
TAFHTS
TAF AMD
KHTS 161929Z 1619/1718 00000KT P6SM FEW004 OVC045
      TEMPO 1619/1620 OVC007
     FM170700 17004KT 6SM -SHRA OVC035
     FM170900 17005KT 5SM -SHRA OVC015
     FM171600 20008KT 6SM -SHRA OVC020=

USA.gov is the U.S. government's official web portal to all federal, state and local government web resources and services.